Marfret Guyane — FNMV — position and weather

sailwx.info

Track history (hours):
 
Tides and Currents Weather Stations Pressure Air Temp Water Temp Dewpoint Dewpoint Depression Visibility Wind Speed Wind Dir Waves Ship Positions

Marfret Guyane

Last reported at 2016-May-25 08:13 UTC. Time now 2016-May-27 12:19 UTC.
Position S 00°12' W 047°37'.

Length 170 m; draft 6.3 m.

Type: Ship (hazmat cat A). MMSI: 226324000.

Date/timePositionNaut miles runAvg speedWind from/ knotsBaromVisibWave heightAir tempDewpointWater temp
2016-May-25 08:13S 00°12' W 047°37'1319.2
2016-May-25 07:33S 00°14' W 047°50'2020.4
2016-May-25 06:33S 00°22' W 048°08'2019.8
2016-May-25 05:33S 00°37' W 048°22'1717.4
2016-May-25 04:33S 00°53' W 048°28'1414.4
2016-May-25 03:33S 01°07' W 048°32'1010.2
2016-May-25 02:33S 01°16' W 048°36'1515.4
2016-May-25 01:33S 01°29' W 048°44'3 2.8
2016-May-25 00:31S 01°32' W 048°45'0 0.0
2016-May-24 23:31S 01°32' W 048°45'0 0.0
2016-May-24 22:31S 01°32' W 048°45'0 0.0
2016-May-24 21:31S 01°32' W 048°45'0 0.0
2016-May-24 20:31S 01°32' W 048°45'0 0.0
2016-May-24 19:31S 01°32' W 048°45'0 0.0
2016-May-24 18:31S 01°32' W 048°45'0 0.0
2016-May-24 17:31S 01°32' W 048°45'0 0.0
2016-May-24 16:31S 01°32' W 048°45'0 0.0
2016-May-24 15:31S 01°32' W 048°45'0 0.0
2016-May-24 14:31S 01°32' W 048°45'0 0.0
2016-May-24 13:31S 01°32' W 048°45'0 0.0
2016-May-24 12:31S 01°32' W 048°45'0 0.0
2016-May-24 11:31S 01°32' W 048°45'0 0.0
2016-May-24 10:31S 01°32' W 048°45'0 0.0
2016-May-24 09:31S 01°32' W 048°45'0 0.0
2016-May-24 08:31S 01°32' W 048°45'0 0.0
2016-May-24 07:31S 01°32' W 048°45'0 0.0
2016-May-24 06:31S 01°32' W 048°45'0 0.0
2016-May-24 05:25S 01°32' W 048°45'0 0.0
2016-May-24 04:31S 01°32' W 048°45'0 0.0
2016-May-24 03:31S 01°32' W 048°45'0 0.0
2016-May-24 02:31S 01°32' W 048°45'0 0.0
2016-May-24 01:31S 01°32' W 048°45'1 0.7
2016-May-24 00:33S 01°32' W 048°46'1312.6
2016-May-23 23:33S 01°20' W 048°41'1515.1
2016-May-23 22:33S 01°08' W 048°31'3 3.3
2016-May-23 21:32S 01°05' W 048°30'0 0.1
2016-May-23 20:32S 01°05' W 048°30'0 0.0
2016-May-23 19:26S 01°05' W 048°30'0 0.1
2016-May-23 18:32S 01°05' W 048°30'0 0.1
2016-May-23 17:32S 01°05' W 048°30'0 0.0
2016-May-23 16:32S 01°05' W 048°30'0 0.0
2016-May-23 15:32S 01°05' W 048°30'0 0.0
2016-May-23 14:32S 01°05' W 048°30'0 0.0
2016-May-23 13:20S 01°05' W 048°30'0 0.0
2016-May-23 12:32S 01°05' W 048°30'0 0.0
2016-May-23 11:32S 01°05' W 048°30'0 0.2
2016-May-23 10:32S 01°05' W 048°30'2 2.1
2016-May-23 09:33S 01°03' W 048°29'8 7.9
2016-May-23 08:33S 00°56' W 048°27'8 8.4
2016-May-23 07:33S 00°47' W 048°28'9 8.8
2016-May-23 06:33S 00°39' W 048°24'9 9.3
2016-May-23 05:33S 00°32' W 048°18'10 9.5
2016-May-23 04:33S 00°25' W 048°12'9 9.3
2016-May-23 03:33S 00°20' W 048°04'1312.9
2016-May-23 02:34S 00°13' W 047°53'  
2016-May-16 03:29N 10°46' W 061°39'1010.3
2016-May-16 02:33N 10°37' W 061°41'10 9.4
2016-May-16 01:32N 10°39' W 061°31'0 0.0
2016-May-16 00:32N 10°39' W 061°31'0 0.0
2016-May-15 23:32N 10°39' W 061°31'0 0.0
2016-May-15 22:32N 10°39' W 061°31'0 0.0
2016-May-15 21:32N 10°39' W 061°31'0 0.0
2016-May-15 20:32N 10°39' W 061°31'0 0.0
2016-May-15 19:32N 10°39' W 061°31'0 0.0
2016-May-15 18:32N 10°39' W 061°31'0 0.0
2016-May-15 17:32N 10°39' W 061°31'0 0.0
2016-May-15 16:32N 10°39' W 061°31'0 0.0
2016-May-15 15:32N 10°39' W 061°31'0 0.0
2016-May-15 14:29N 10°39' W 061°31'0 0.0
2016-May-15 13:32N 10°39' W 061°31'0 0.0
2016-May-15 12:32N 10°39' W 061°31'0 0.0
2016-May-15 11:32N 10°39' W 061°31'0 0.0
2016-May-15 10:32N 10°39' W 061°31'0 0.0
2016-May-15 09:32N 10°39' W 061°31'0 0.0
2016-May-15 08:32N 10°39' W 061°31'  
Track history (hours):
 
Tides and Currents Weather Stations Pressure Air Temp Water Temp Dewpoint Dewpoint Depression Visibility Wind Speed Wind Dir Waves Ship Positions

Marfret Guyane

Last reported at 2016-May-25 08:13 UTC. Time now 2016-May-27 12:19 UTC.
Position S 00°12' W 047°37'.

Length 170 m; draft 6.3 m.

Type: Ship (hazmat cat A). MMSI: 226324000.

Date/timePositionNaut miles runAvg speedWind from/ knotsBaromVisibWave heightAir tempDewpointWater temp
2016-May-25 08:13S 00°12' W 047°37'1319.2
2016-May-25 07:33S 00°14' W 047°50'2020.4
2016-May-25 06:33S 00°22' W 048°08'2019.8
2016-May-25 05:33S 00°37' W 048°22'1717.4
2016-May-25 04:33S 00°53' W 048°28'1414.4
2016-May-25 03:33S 01°07' W 048°32'1010.2
2016-May-25 02:33S 01°16' W 048°36'1515.4
2016-May-25 01:33S 01°29' W 048°44'3 2.8
2016-May-25 00:31S 01°32' W 048°45'0 0.0
2016-May-24 23:31S 01°32' W 048°45'0 0.0
2016-May-24 22:31S 01°32' W 048°45'0 0.0
2016-May-24 21:31S 01°32' W 048°45'0 0.0
2016-May-24 20:31S 01°32' W 048°45'0 0.0
2016-May-24 19:31S 01°32' W 048°45'0 0.0
2016-May-24 18:31S 01°32' W 048°45'0 0.0
2016-May-24 17:31S 01°32' W 048°45'0 0.0
2016-May-24 16:31S 01°32' W 048°45'0 0.0
2016-May-24 15:31S 01°32' W 048°45'0 0.0
2016-May-24 14:31S 01°32' W 048°45'0 0.0
2016-May-24 13:31S 01°32' W 048°45'0 0.0
2016-May-24 12:31S 01°32' W 048°45'0 0.0
2016-May-24 11:31S 01°32' W 048°45'0 0.0
2016-May-24 10:31S 01°32' W 048°45'0 0.0
2016-May-24 09:31S 01°32' W 048°45'0 0.0
2016-May-24 08:31S 01°32' W 048°45'0 0.0
2016-May-24 07:31S 01°32' W 048°45'0 0.0
2016-May-24 06:31S 01°32' W 048°45'0 0.0
2016-May-24 05:25S 01°32' W 048°45'0 0.0
2016-May-24 04:31S 01°32' W 048°45'0 0.0
2016-May-24 03:31S 01°32' W 048°45'0 0.0
2016-May-24 02:31S 01°32' W 048°45'0 0.0
2016-May-24 01:31S 01°32' W 048°45'1 0.7
2016-May-24 00:33S 01°32' W 048°46'1312.6
2016-May-23 23:33S 01°20' W 048°41'1515.1
2016-May-23 22:33S 01°08' W 048°31'3 3.3
2016-May-23 21:32S 01°05' W 048°30'0 0.1
2016-May-23 20:32S 01°05' W 048°30'0 0.0
2016-May-23 19:26S 01°05' W 048°30'0 0.1
2016-May-23 18:32S 01°05' W 048°30'0 0.1
2016-May-23 17:32S 01°05' W 048°30'0 0.0
2016-May-23 16:32S 01°05' W 048°30'0 0.0
2016-May-23 15:32S 01°05' W 048°30'0 0.0
2016-May-23 14:32S 01°05' W 048°30'0 0.0
2016-May-23 13:20S 01°05' W 048°30'0 0.0
2016-May-23 12:32S 01°05' W 048°30'0 0.0
2016-May-23 11:32S 01°05' W 048°30'0 0.2
2016-May-23 10:32S 01°05' W 048°30'2 2.1
2016-May-23 09:33S 01°03' W 048°29'8 7.9
2016-May-23 08:33S 00°56' W 048°27'8 8.4
2016-May-23 07:33S 00°47' W 048°28'9 8.8
2016-May-23 06:33S 00°39' W 048°24'9 9.3
2016-May-23 05:33S 00°32' W 048°18'10 9.5
2016-May-23 04:33S 00°25' W 048°12'9 9.3
2016-May-23 03:33S 00°20' W 048°04'1312.9
2016-May-23 02:34S 00°13' W 047°53'  
2016-May-16 03:29N 10°46' W 061°39'1010.3
2016-May-16 02:33N 10°37' W 061°41'10 9.4
2016-May-16 01:32N 10°39' W 061°31'0 0.0
2016-May-16 00:32N 10°39' W 061°31'0 0.0
2016-May-15 23:32N 10°39' W 061°31'0 0.0
2016-May-15 22:32N 10°39' W 061°31'0 0.0
2016-May-15 21:32N 10°39' W 061°31'0 0.0
2016-May-15 20:32N 10°39' W 061°31'0 0.0
2016-May-15 19:32N 10°39' W 061°31'0 0.0
2016-May-15 18:32N 10°39' W 061°31'0 0.0
2016-May-15 17:32N 10°39' W 061°31'0 0.0
2016-May-15 16:32N 10°39' W 061°31'0 0.0
2016-May-15 15:32N 10°39' W 061°31'0 0.0
2016-May-15 14:29N 10°39' W 061°31'0 0.0
2016-May-15 13:32N 10°39' W 061°31'0 0.0
2016-May-15 12:32N 10°39' W 061°31'0 0.0
2016-May-15 11:32N 10°39' W 061°31'0 0.0
2016-May-15 10:32N 10°39' W 061°31'0 0.0
2016-May-15 09:32N 10°39' W 061°31'0 0.0
2016-May-15 08:32N 10°39' W 061°31'  

Dump ship's entire track history